Time;durP1;ratioP1;P1;durP2;ratioP2;P2;SDS_P1;SDS_P2;PMS_P1;PMS_P2;Temp;Humidity;BMP_temperature;BMP_pressure;BME280_temperature;BME280_humidity;BME280_pressure;Samples;Min_cycle;Max_cycle;Signal;HPM_P1;HPM_P2
2021/05/15 00:00:12;;;;;;;;;;;;;;;12.17;100.00;98131.97;5058732;28;19923;-64
2021/05/15 00:02:37;;;;;;;;;;;;;;;12.41;100.00;98133.25;5060339;28;19924;-64
2021/05/15 00:05:06;;;;;;;;;;;;;;;12.20;100.00;98134.38;5056037;28;20007;-64
2021/05/15 00:07:32;;;;;;;;;;;;;;;12.31;100.00;98137.22;5056643;28;19922;-64
2021/05/15 00:09:57;;;;;;;;;;;;;;;12.13;100.00;98129.56;5056777;28;19916;-64
2021/05/15 00:12:23;;;;;;;;;;;;;;;12.27;100.00;98126.25;5052781;28;20379;-64
2021/05/15 00:14:48;;;;;;;;;;;;;;;12.11;100.00;98121.06;5034867;28;19916;-64
2021/05/15 00:17:14;;;;;;;;;;;;;;;12.27;100.00;98115.94;5056166;28;20051;-64
2021/05/15 00:19:39;;;;;;;;;;;;;;;11.93;100.00;98115.09;5057285;28;19928;-64
2021/05/15 00:22:04;;;;;;;;;;;;;;;12.07;100.00;98119.53;5056481;28;19955;-64
2021/05/15 00:24:30;;;;;;;;;;;;;;;12.17;100.00;98113.91;5056534;28;19942;-64
2021/05/15 00:26:55;;;;;;;;;;;;;;;12.03;100.00;98125.78;5057761;28;19963;-64
2021/05/15 00:29:21;;;;;;;;;;;;;;;12.01;100.00;98112.13;5055106;28;20422;-64
2021/05/15 00:31:46;;;;;;;;;;;;;;;12.30;100.00;98118.34;5053700;28;20395;-64
2021/05/15 00:34:12;;;;;;;;;;;;;;;12.00;100.00;98107.88;5054602;28;19917;-65
2021/05/15 00:36:37;;;;;;;;;;;;;;;11.71;100.00;98117.91;5055977;28;19985;-64
2021/05/15 00:39:03;;;;;;;;;;;;;;;12.03;100.00;98115.44;5033764;28;19963;-63
2021/05/15 00:41:29;;;;;;;;;;;;;;;12.01;100.00;98114.69;5056710;28;19920;-64
2021/05/15 00:44:17;;;;;;;;;;;;;;;11.89;100.00;98110.19;5058885;28;19912;-65
2021/05/15 00:46:45;;;;;;;;;;;;;;;11.66;100.00;98103.59;5033560;28;19924;-65
2021/05/15 00:49:10;;;;;;;;;;;;;;;12.06;100.00;98099.78;5059669;28;19917;-65
2021/05/15 00:51:36;;;;;;;;;;;;;;;11.66;100.00;98094.09;5057472;28;19928;-64
2021/05/15 00:54:02;;;;;;;;;;;;;;;11.63;100.00;98094.28;5055992;28;19923;-63
2021/05/15 00:56:30;;;;;;;;;;;;;;;12.11;100.00;98095.25;5056986;28;20286;-65
2021/05/15 00:58:56;;;;;;;;;;;;;;;11.75;100.00;98092.81;5054936;28;20011;-64
2021/05/15 01:01:22;;;;;;;;;;;;;;;11.90;100.00;98089.44;5059080;28;19999;-64
2021/05/15 01:03:47;;;;;;;;;;;;;;;11.98;100.00;98083.91;5057308;28;19924;-64
2021/05/15 01:06:13;;;;;;;;;;;;;;;11.71;100.00;98094.69;5063141;28;19916;-64
2021/05/15 01:08:42;;;;;;;;;;;;;;;11.75;100.00;98086.81;5064110;28;20300;-64
2021/05/15 01:11:08;;;;;;;;;;;;;;;11.87;100.00;98084.44;5062812;28;19956;-64
2021/05/15 01:13:35;;;;;;;;;;;;;;;11.96;100.00;98082.31;5062092;28;19970;-63
2021/05/15 01:16:00;;;;;;;;;;;;;;;11.55;100.00;98086.06;5060727;28;19924;-63
2021/05/15 01:18:26;;;;;;;;;;;;;;;11.82;100.00;98083.84;5056530;28;19916;-64
2021/05/15 01:20:51;;;;;;;;;;;;;;;11.95;100.00;98078.91;5058867;28;20318;-65
2021/05/15 01:23:17;;;;;;;;;;;;;;;11.64;100.00;98085.59;5061405;28;19912;-63
2021/05/15 01:25:42;;;;;;;;;;;;;;;11.81;100.00;98076.16;5057414;28;19955;-63
2021/05/15 01:28:07;;;;;;;;;;;;;;;12.01;100.00;98072.59;5059490;28;19917;-64
2021/05/15 01:30:32;;;;;;;;;;;;;;;11.78;100.00;98071.19;5061205;28;19951;-63
2021/05/15 01:32:58;;;;;;;;;;;;;;;11.89;100.00;98079.22;5060325;28;20028;-64
2021/05/15 01:35:23;;;;;;;;;;;;;;;12.06;100.00;98068.84;5060837;28;19951;-64
2021/05/15 01:37:48;;;;;;;;;;;;;;;11.77;100.00;98075.50;5059057;28;20453;-64
2021/05/15 01:40:14;;;;;;;;;;;;;;;11.90;100.00;98065.41;5060690;28;19924;-63
2021/05/15 01:42:39;;;;;;;;;;;;;;;11.81;100.00;98069.25;5058309;28;20464;-64
2021/05/15 01:45:05;;;;;;;;;;;;;;;11.59;100.00;98066.97;5061747;28;20399;-63
2021/05/15 01:47:34;;;;;;;;;;;;;;;11.70;100.00;98064.66;5059372;28;20415;-64
2021/05/15 01:49:59;;;;;;;;;;;;;;;11.80;100.00;98064.19;5059433;28;20421;-64
2021/05/15 01:52:25;;;;;;;;;;;;;;;11.60;100.00;98068.63;5059069;28;19976;-63
2021/05/15 01:54:50;;;;;;;;;;;;;;;11.69;100.00;98057.81;5061974;28;19919;-64
2021/05/15 01:57:15;;;;;;;;;;;;;;;11.72;100.00;98051.69;5060117;28;20015;-64
2021/05/15 01:59:41;;;;;;;;;;;;;;;11.58;100.00;98059.28;5041672;28;20019;-64
2021/05/15 02:02:06;;;;;;;;;;;;;;;11.33;100.00;98050.22;5036143;28;20274;-64
2021/05/15 02:04:32;;;;;;;;;;;;;;;11.66;100.00;98060.56;5054400;28;20654;-64
2021/05/15 02:06:58;;;;;;;;;;;;;;;11.70;100.00;98056.94;5050523;28;20023;-64
2021/05/15 02:09:23;;;;;;;;;;;;;;;11.75;100.00;98056.69;5051215;28;19920;-63
2021/05/15 02:11:49;;;;;;;;;;;;;;;11.66;100.00;98052.84;5051366;28;20459;-64
2021/05/15 02:14:14;;;;;;;;;;;;;;;11.60;100.00;98050.56;5054228;28;20172;-64
2021/05/15 02:16:39;;;;;;;;;;;;;;;11.58;100.00;98044.66;5052006;28;20318;-64
2021/05/15 02:19:05;;;;;;;;;;;;;;;11.46;100.00;98040.97;5051154;28;20043;-64
2021/05/15 02:21:32;;;;;;;;;;;;;;;11.52;100.00;98037.25;5051688;28;19916;-64
2021/05/15 02:23:57;;;;;;;;;;;;;;;11.48;100.00;98033.16;5049875;28;19916;-64
2021/05/15 02:26:22;;;;;;;;;;;;;;;11.30;100.00;98030.59;5053559;28;19935;-64
2021/05/15 02:28:48;;;;;;;;;;;;;;;10.97;100.00;98027.13;5052399;28;19952;-64
2021/05/15 02:31:13;;;;;;;;;;;;;;;11.03;100.00;98026.81;5054160;28;19916;-64
2021/05/15 02:33:39;;;;;;;;;;;;;;;11.20;100.00;98026.81;5053768;28;19921;-64
2021/05/15 02:36:04;;;;;;;;;;;;;;;10.92;100.00;98024.75;5052809;28;19920;-64
2021/05/15 02:38:29;;;;;;;;;;;;;;;11.02;100.00;98028.56;5053044;28;20309;-64
2021/05/15 02:40:55;;;;;;;;;;;;;;;11.03;100.00;98027.66;5053762;28;19920;-64
2021/05/15 02:43:20;;;;;;;;;;;;;;;11.08;100.00;98019.69;5052063;28;20307;-64
2021/05/15 02:45:46;;;;;;;;;;;;;;;10.79;100.00;98018.56;5051710;28;19917;-64
2021/05/15 02:48:16;;;;;;;;;;;;;;;11.10;100.00;98020.44;5051874;28;19921;-64
2021/05/15 02:50:42;;;;;;;;;;;;;;;11.25;100.00;98016.28;5050417;28;20008;-64
2021/05/15 02:53:08;;;;;;;;;;;;;;;11.44;100.00;98011.00;5053119;28;19916;-64
2021/05/15 02:55:33;;;;;;;;;;;;;;;11.38;100.00;98011.31;5053068;28;20018;-64
2021/05/15 02:57:58;;;;;;;;;;;;;;;11.57;100.00;98012.06;5054090;28;19962;-63
2021/05/15 03:00:25;;;;;;;;;;;;;;;11.48;100.00;98010.78;5054935;28;19917;-63
2021/05/15 03:02:50;;;;;;;;;;;;;;;11.20;100.00;98008.78;5063790;28;19999;-65
2021/05/15 03:05:17;;;;;;;;;;;;;;;11.47;100.00;98005.69;5080396;28;20019;-63
2021/05/15 03:07:42;;;;;;;;;;;;;;;11.51;100.00;98007.22;5079345;28;20209;-65
2021/05/15 03:10:08;;;;;;;;;;;;;;;11.43;100.00;98011.94;5078158;28;19920;-64
2021/05/15 03:12:34;;;;;;;;;;;;;;;11.20;100.00;98016.53;5046787;28;20459;-64
2021/05/15 03:14:59;;;;;;;;;;;;;;;11.38;100.00;98008.75;5061664;28;19927;-66
2021/05/15 03:17:24;;;;;;;;;;;;;;;11.40;100.00;98012.09;5082480;28;20276;-63
2021/05/15 03:19:52;;;;;;;;;;;;;;;11.26;100.00;98003.31;5064602;28;19917;-66
2021/05/15 03:22:18;;;;;;;;;;;;;;;11.40;100.00;98010.31;5060037;28;19975;-65
2021/05/15 03:24:44;;;;;;;;;;;;;;;11.29;100.00;97998.00;5083137;28;20355;-65
2021/05/15 03:27:09;;;;;;;;;;;;;;;10.96;100.00;98002.28;5082853;28;19926;-65
2021/05/15 03:29:34;;;;;;;;;;;;;;;11.22;100.00;97996.66;5081991;28;19994;-65
2021/05/15 03:32:00;;;;;;;;;;;;;;;11.08;100.00;97999.94;5049906;28;19995;-65
2021/05/15 03:34:25;;;;;;;;;;;;;;;11.22;100.00;98001.81;5047068;28;20053;-65
2021/05/15 03:36:50;;;;;;;;;;;;;;;11.30;100.00;98001.41;5050798;28;20027;-65
2021/05/15 03:39:19;;;;;;;;;;;;;;;11.23;100.00;97993.16;5083826;28;20405;-65
2021/05/15 03:41:45;;;;;;;;;;;;;;;11.38;100.00;97993.28;5082909;28;19927;-65
2021/05/15 03:44:10;;;;;;;;;;;;;;;11.48;100.00;97997.06;5082591;28;19916;-67
2021/05/15 03:46:35;;;;;;;;;;;;;;;11.53;100.00;97992.50;5083162;28;19978;-64
2021/05/15 03:49:01;;;;;;;;;;;;;;;11.40;100.00;97994.03;5064952;28;19990;-64
2021/05/15 03:51:26;;;;;;;;;;;;;;;11.30;100.00;97997.09;5080549;28;20290;-64
2021/05/15 03:53:51;;;;;;;;;;;;;;;11.07;100.00;97998.25;5062250;28;19920;-64
2021/05/15 03:56:17;;;;;;;;;;;;;;;11.15;100.00;98000.44;5085034;28;20421;-64
2021/05/15 03:58:42;;;;;;;;;;;;;;;11.26;100.00;97992.16;5063295;28;19962;-64
2021/05/15 04:01:07;;;;;;;;;;;;;;;11.29;100.00;97992.84;5081862;28;20297;-63
2021/05/15 04:03:33;;;;;;;;;;;;;;;11.39;100.00;97997.53;5083650;28;19919;-63
2021/05/15 04:05:58;;;;;;;;;;;;;;;11.31;100.00;97995.34;5083969;28;19920;-63
2021/05/15 04:08:23;;;;;;;;;;;;;;;11.35;100.00;98001.19;5083215;28;20003;-63
2021/05/15 04:10:49;;;;;;;;;;;;;;;11.15;100.00;97995.28;5057254;28;20269;-63
2021/05/15 04:18:12;;;;;;;;;;;;;;;11.02;100.00;98009.72;5082374;28;20362;-63
2021/05/15 04:20:38;;;;;;;;;;;;;;;11.13;100.00;97999.69;5045776;28;20007;-64
2021/05/15 04:23:04;;;;;;;;;;;;;;;11.00;100.00;97999.47;5064151;28;20030;-64
2021/05/15 04:25:29;;;;;;;;;;;;;;;11.03;100.00;97999.31;5062859;28;19946;-64
2021/05/15 04:27:55;;;;;;;;;;;;;;;10.97;100.00;97991.03;5080411;28;20173;-64
2021/05/15 04:30:20;;;;;;;;;;;;;;;10.93;100.00;97994.72;5082974;28;20031;-64
2021/05/15 04:32:46;;;;;;;;;;;;;;;11.15;100.00;97995.28;5081070;28;19959;-64
2021/05/15 04:35:11;;;;;;;;;;;;;;;11.07;100.00;97994.84;5064816;28;20354;-64
2021/05/15 04:37:37;;;;;;;;;;;;;;;11.15;100.00;98005.59;5065581;28;19926;-64
2021/05/15 04:40:02;;;;;;;;;;;;;;;11.23;100.00;98006.03;5081351;28;20019;-64
2021/05/15 04:42:28;;;;;;;;;;;;;;;10.91;100.00;98001.69;5060702;28;19924;-64
2021/05/15 04:44:53;;;;;;;;;;;;;;;11.02;100.00;98009.72;5081065;28;19916;-63
2021/05/15 04:47:19;;;;;;;;;;;;;;;10.73;100.00;97998.25;5081363;28;20014;-63
2021/05/15 04:49:44;;;;;;;;;;;;;;;10.94;100.00;97996.38;5063222;28;20374;-64
2021/05/15 04:52:09;;;;;;;;;;;;;;;11.12;100.00;97990.28;5079819;28;19928;-64
2021/05/15 04:54:35;;;;;;;;;;;;;;;11.07;100.00;98000.00;5081791;28;19916;-63
2021/05/15 04:57:01;;;;;;;;;;;;;;;11.14;100.00;97996.19;5081869;28;20371;-64
2021/05/15 04:59:26;;;;;;;;;;;;;;;11.16;100.00;98004.69;5081764;28;19924;-64
2021/05/15 05:01:53;;;;;;;;;;;;;;;10.89;100.00;97997.41;5080356;28;19955;-67
2021/05/15 05:04:18;;;;;;;;;;;;;;;11.01;100.00;97995.16;5083348;28;19924;-67
2021/05/15 05:06:43;;;;;;;;;;;;;;;11.14;100.00;97992.78;5079878;28;20131;-67
2021/05/15 05:09:09;;;;;;;;;;;;;;;11.00;100.00;97985.75;5063553;28;19928;-67
2021/05/15 05:11:34;;;;;;;;;;;;;;;11.06;100.00;97982.84;5082765;28;19965;-67
2021/05/15 05:13:59;;;;;;;;;;;;;;;11.10;100.00;97987.78;5045978;28;19943;-67
2021/05/15 05:16:26;;;;;;;;;;;;;;;11.25;100.00;97980.19;5082248;28;19951;-67
2021/05/15 05:18:51;;;;;;;;;;;;;;;11.51;100.00;97984.00;5081949;28;19966;-66
2021/05/15 05:21:16;;;;;;;;;;;;;;;11.04;100.00;97984.72;5081124;28;20357;-67
2021/05/15 05:23:42;;;;;;;;;;;;;;;11.45;100.00;97986.91;5076395;28;19927;-67
2021/05/15 05:26:07;;;;;;;;;;;;;;;11.33;100.00;97974.66;5061333;28;19915;-67
2021/05/15 05:28:36;;;;;;;;;;;;;;;11.76;100.00;97980.97;5060909;28;19920;-67
2021/05/15 05:31:04;;;;;;;;;;;;;;;11.98;100.00;97970.38;5061253;28;19928;-67
2021/05/15 05:33:30;;;;;;;;;;;;;;;11.86;100.00;97971.84;5062662;28;19964;-67
2021/05/15 05:35:56;;;;;;;;;;;;;;;11.92;100.00;97981.00;5079299;28;20362;-67
2021/05/15 05:38:21;;;;;;;;;;;;;;;11.89;100.00;97981.19;5079144;28;19924;-67
2021/05/15 05:40:47;;;;;;;;;;;;;;;11.52;100.00;97983.94;5080669;28;19920;-67
2021/05/15 05:43:12;;;;;;;;;;;;;;;11.64;100.00;97986.78;5062035;28;20129;-67
2021/05/15 05:45:37;;;;;;;;;;;;;;;11.92;100.00;97981.84;5058823;28;19912;-67
2021/05/15 05:48:03;;;;;;;;;;;;;;;11.67;100.00;97992.59;5060259;28;19927;-67
2021/05/15 05:50:28;;;;;;;;;;;;;;;11.75;100.00;97984.47;5079821;28;20386;-67
2021/05/15 05:52:55;;;;;;;;;;;;;;;11.94;100.00;97986.94;5080435;28;19932;-67
2021/05/15 05:55:22;;;;;;;;;;;;;;;11.88;100.00;97979.50;5080389;28;19924;-67
2021/05/15 05:57:47;;;;;;;;;;;;;;;11.77;100.00;97979.22;5062806;28;20050;-67
2021/05/15 06:00:13;;;;;;;;;;;;;;;11.83;100.00;97981.47;5080335;28;19999;-67
2021/05/15 06:02:39;;;;;;;;;;;;;;;12.08;100.00;97981.84;5063980;28;19931;-67
2021/05/15 06:05:05;;;;;;;;;;;;;;;12.26;100.00;97979.19;5079197;28;19920;-67
2021/05/15 06:07:30;;;;;;;;;;;;;;;12.35;100.00;97983.84;5078580;28;20456;-67
2021/05/15 06:09:55;;;;;;;;;;;;;;;12.33;100.00;97981.31;5080697;28;20385;-67
2021/05/15 06:12:21;;;;;;;;;;;;;;;12.05;100.00;97986.34;5063557;28;20007;-67
2021/05/15 06:14:46;;;;;;;;;;;;;;;12.29;100.00;97989.31;5079968;28;19947;-67
2021/05/15 06:17:11;;;;;;;;;;;;;;;12.49;100.00;97981.31;5080492;28;19919;-67
2021/05/15 06:19:37;;;;;;;;;;;;;;;12.49;100.00;97991.63;5076623;28;19924;-67
2021/05/15 06:22:02;;;;;;;;;;;;;;;12.76;100.00;97988.41;5059064;28;20007;-67
2021/05/15 06:24:28;;;;;;;;;;;;;;;12.59;100.00;97988.53;5062027;28;20385;-67
2021/05/15 06:26:53;;;;;;;;;;;;;;;12.64;100.00;97991.72;5077967;28;20244;-67
2021/05/15 06:29:18;;;;;;;;;;;;;;;12.65;100.00;97999.34;5077077;28;20062;-67
2021/05/15 06:31:44;;;;;;;;;;;;;;;13.07;100.00;97996.97;5059050;28;20008;-66
2021/05/15 06:34:09;;;;;;;;;;;;;;;13.08;100.00;97996.06;5078894;28;19931;-67
2021/05/15 06:36:34;;;;;;;;;;;;;;;12.87;100.00;98001.56;5059664;28;19912;-67
2021/05/15 06:39:00;;;;;;;;;;;;;;;12.83;100.00;97991.47;5080357;28;19923;-67
2021/05/15 06:41:25;;;;;;;;;;;;;;;12.82;100.00;97990.66;5077258;28;19921;-67
2021/05/15 06:43:51;;;;;;;;;;;;;;;12.69;100.00;97992.28;5078609;28;19960;-66
2021/05/15 06:46:17;;;;;;;;;;;;;;;12.47;100.00;97993.47;5057835;28;20299;-67
2021/05/15 06:48:42;;;;;;;;;;;;;;;13.00;100.00;97991.34;5079350;28;19916;-67
2021/05/15 06:51:08;;;;;;;;;;;;;;;13.46;100.00;97987.84;5079586;28;19920;-67
2021/05/15 06:53:33;;;;;;;;;;;;;;;13.83;100.00;97990.78;5080798;28;19942;-67
2021/05/15 06:55:58;;;;;;;;;;;;;;;13.60;100.00;97985.25;5081906;28;20001;-67
2021/05/15 06:58:24;;;;;;;;;;;;;;;13.67;100.00;97981.34;5064669;28;19938;-68
2021/05/15 07:00:49;;;;;;;;;;;;;;;13.95;100.00;97979.66;5080643;28;19963;-67
2021/05/15 07:03:14;;;;;;;;;;;;;;;13.90;100.00;97977.34;5082184;28;20596;-68
2021/05/15 07:05:40;;;;;;;;;;;;;;;13.98;100.00;97982.91;5062011;28;19927;-66
2021/05/15 07:08:05;;;;;;;;;;;;;;;14.13;100.00;97978.50;5048756;28;20344;-68
2021/05/15 07:10:30;;;;;;;;;;;;;;;13.44;100.00;97985.34;5080451;28;19966;-68
2021/05/15 07:12:57;;;;;;;;;;;;;;;13.55;100.00;97976.94;5064924;28;20359;-68
2021/05/15 07:15:22;;;;;;;;;;;;;;;14.54;100.00;97962.13;5083341;28;19923;-68
2021/05/15 07:17:47;;;;;;;;;;;;;;;14.48;100.00;97965.06;5062607;28;19916;-66
2021/05/15 07:20:13;;;;;;;;;;;;;;;14.79;100.00;97966.53;5082992;28;19989;-67
2021/05/15 07:22:40;;;;;;;;;;;;;;;15.41;100.00;97963.25;5081624;28;19966;-66
2021/05/15 07:25:09;;;;;;;;;;;;;;;15.45;98.36;97962.09;5079626;28;20007;-67
2021/05/15 07:27:34;;;;;;;;;;;;;;;15.80;96.61;97953.66;5063910;28;20378;-66
2021/05/15 07:30:00;;;;;;;;;;;;;;;15.22;95.72;97957.66;5082191;28;19932;-67
2021/05/15 07:32:25;;;;;;;;;;;;;;;15.20;97.67;97956.94;5080963;28;19920;-67
2021/05/15 07:34:51;;;;;;;;;;;;;;;14.78;97.92;97953.66;5082279;28;19967;-66
2021/05/15 07:37:16;;;;;;;;;;;;;;;15.06;99.08;97950.91;5079924;28;20015;-67
2021/05/15 07:39:42;;;;;;;;;;;;;;;15.40;96.87;97946.03;5050333;28;19965;-66
2021/05/15 07:42:07;;;;;;;;;;;;;;;15.14;95.93;97950.38;5065826;28;20389;-67
2021/05/15 07:44:33;;;;;;;;;;;;;;;15.27;96.36;97950.38;5082607;28;19916;-66
2021/05/15 07:46:58;;;;;;;;;;;;;;;13.92;100.00;97961.75;5083058;28;19912;-66
2021/05/15 07:49:24;;;;;;;;;;;;;;;14.60;100.00;97951.38;5080846;28;19913;-67
2021/05/15 07:51:50;;;;;;;;;;;;;;;14.30;100.00;97950.69;5083298;28;19928;-66
2021/05/15 07:54:16;;;;;;;;;;;;;;;13.42;100.00;97956.16;5066964;28;19930;-66
2021/05/15 07:56:41;;;;;;;;;;;;;;;13.51;100.00;97952.19;5064726;28;20039;-66
2021/05/15 07:59:06;;;;;;;;;;;;;;;14.71;98.64;97955.84;5082132;28;19912;-66
2021/05/15 08:01:32;;;;;;;;;;;;;;;14.92;100.00;97958.78;5078328;28;19956;-66
2021/05/15 08:03:57;;;;;;;;;;;;;;;15.05;97.00;97957.03;5084129;28;19923;-66
2021/05/15 08:06:22;;;;;;;;;;;;;;;15.00;98.13;97955.66;5066984;28;19920;-66
2021/05/15 08:08:48;;;;;;;;;;;;;;;15.13;97.18;97960.88;5083850;28;19919;-66
2021/05/15 08:11:16;;;;;;;;;;;;;;;14.90;99.23;97958.06;5084203;28;19975;-66
2021/05/15 08:13:42;;;;;;;;;;;;;;;15.26;97.19;97959.94;5066461;28;19948;-66
2021/05/15 08:16:07;;;;;;;;;;;;;;;15.16;94.50;97950.28;5085289;28;20077;-66
2021/05/15 08:18:33;;;;;;;;;;;;;;;15.79;92.18;97953.78;5084471;28;20480;-67
2021/05/15 08:20:58;;;;;;;;;;;;;;;16.04;89.89;97956.31;5077029;28;19920;-66
2021/05/15 08:23:23;;;;;;;;;;;;;;;15.81;88.48;97950.16;5062144;28;19938;-66
2021/05/15 08:25:49;;;;;;;;;;;;;;;15.16;89.86;97952.88;5079921;28;19924;-67
2021/05/15 08:28:16;;;;;;;;;;;;;;;15.66;88.94;97940.78;5082655;28;19920;-66
2021/05/15 08:30:42;;;;;;;;;;;;;;;16.03;90.93;97948.63;5082899;28;19934;-67
2021/05/15 08:33:08;;;;;;;;;;;;;;;15.29;95.02;97945.94;5082077;28;19968;-67
2021/05/15 08:35:33;;;;;;;;;;;;;;;15.94;87.68;97934.50;5063579;28;20007;-67
2021/05/15 08:37:59;;;;;;;;;;;;;;;16.71;84.00;97942.78;5079621;28;19931;-67
2021/05/15 08:40:25;;;;;;;;;;;;;;;15.81;87.09;97939.75;5080468;28;19967;-67
2021/05/15 08:42:53;;;;;;;;;;;;;;;17.31;82.62;97932.25;5082467;28;20374;-68
2021/05/15 08:45:18;;;;;;;;;;;;;;;16.28;77.88;97932.94;5064942;28;19920;-67
2021/05/15 08:47:44;;;;;;;;;;;;;;;16.36;84.51;97934.97;5063970;28;19912;-67
2021/05/15 08:50:13;;;;;;;;;;;;;;;16.35;85.54;97927.28;5081267;28;20588;-68
2021/05/15 08:52:39;;;;;;;;;;;;;;;16.39;86.50;97931.31;5079827;28;19928;-68
2021/05/15 08:55:06;;;;;;;;;;;;;;;15.30;89.48;97929.41;5082502;28;19923;-67
2021/05/15 08:57:33;;;;;;;;;;;;;;;15.30;92.83;97934.59;5062920;28;20006;-68
2021/05/15 08:59:59;;;;;;;;;;;;;;;15.88;90.37;97930.59;5063258;28;19916;-68
2021/05/15 09:02:24;;;;;;;;;;;;;;;14.89;97.58;97927.84;5080015;28;20064;-67
2021/05/15 09:04:49;;;;;;;;;;;;;;;15.11;95.65;97929.03;5062117;28;19924;-68
2021/05/15 09:07:15;;;;;;;;;;;;;;;14.10;99.28;97939.88;5081495;28;19970;-68
2021/05/15 09:09:40;;;;;;;;;;;;;;;14.70;100.00;97943.81;5079232;28;19920;-67
2021/05/15 09:12:05;;;;;;;;;;;;;;;13.48;100.00;97944.59;5078741;28;19923;-67
2021/05/15 09:14:31;;;;;;;;;;;;;;;12.40;100.00;97957.75;5080834;28;19973;-67
2021/05/15 09:16:56;;;;;;;;;;;;;;;12.67;100.00;97950.19;5059502;28;20000;-67
2021/05/15 09:19:23;;;;;;;;;;;;;;;12.86;100.00;97953.38;5078097;28;19916;-67
2021/05/15 09:22:04;;;;;;;;;;;;;;;12.51;100.00;97955.41;5078265;28;19959;-67
2021/05/15 09:24:34;;;;;;;;;;;;;;;13.49;100.00;97946.25;5079868;28;20335;-67
2021/05/15 09:27:01;;;;;;;;;;;;;;;14.52;100.00;97937.22;5080074;28;19921;-67
2021/05/15 09:29:27;;;;;;;;;;;;;;;14.88;100.00;97934.00;5062926;28;19920;-67
2021/05/15 09:31:52;;;;;;;;;;;;;;;15.16;100.00;97929.53;5076402;28;20302;-67
2021/05/15 09:34:17;;;;;;;;;;;;;;;14.74;100.00;97928.91;5078010;28;19926;-67
2021/05/15 09:36:44;;;;;;;;;;;;;;;13.20;100.00;97935.88;5077891;28;19927;-67
2021/05/15 09:39:10;;;;;;;;;;;;;;;14.39;100.00;97932.84;5080575;28;19965;-67
2021/05/15 09:41:37;;;;;;;;;;;;;;;14.54;100.00;97936.22;5057781;28;19928;-67
2021/05/15 09:44:06;;;;;;;;;;;;;;;13.41;100.00;97931.22;5078363;28;19924;-67
2021/05/15 09:46:33;;;;;;;;;;;;;;;13.00;100.00;97933.63;5075888;28;20389;-66
2021/05/15 09:48:58;;;;;;;;;;;;;;;12.81;100.00;97934.72;5079777;28;19942;-67
2021/05/15 09:51:23;;;;;;;;;;;;;;;12.93;100.00;97928.84;5080532;28;20291;-67
2021/05/15 09:53:49;;;;;;;;;;;;;;;13.86;100.00;97926.69;5077325;28;19967;-67
2021/05/15 09:56:25;;;;;;;;;;;;;;;13.61;100.00;97919.63;5080359;28;20686;-67
2021/05/15 09:58:51;;;;;;;;;;;;;;;14.09;100.00;97914.06;5060002;28;19920;-67
2021/05/15 10:01:16;;;;;;;;;;;;;;;14.15;100.00;97906.75;5076816;28;19995;-67
2021/05/15 10:03:41;;;;;;;;;;;;;;;14.45;100.00;97905.69;5061878;28;20019;-67
2021/05/15 10:06:08;;;;;;;;;;;;;;;14.36;100.00;97901.09;5079278;28;19915;-67
2021/05/15 10:08:34;;;;;;;;;;;;;;;14.59;100.00;97897.88;5061382;28;19912;-67
2021/05/15 10:11:00;;;;;;;;;;;;;;;14.54;100.00;97901.66;5062586;28;19920;-67
2021/05/15 10:13:26;;;;;;;;;;;;;;;16.24;100.00;97897.75;5078595;28;19916;-67
2021/05/15 10:15:51;;;;;;;;;;;;;;;13.71;100.00;97902.63;5080366;28;20387;-67
2021/05/15 10:18:17;;;;;;;;;;;;;;;13.27;100.00;97898.38;5063270;28;19919;-67
2021/05/15 10:20:43;;;;;;;;;;;;;;;14.61;100.00;97890.00;5062573;28;20359;-67
2021/05/15 10:23:22;;;;;;;;;;;;;;;15.98;100.00;97884.03;5042930;28;19968;-67
2021/05/15 10:25:48;;;;;;;;;;;;;;;15.78;100.00;97885.47;5064312;28;19935;-67
2021/05/15 10:28:24;;;;;;;;;;;;;;;15.37;100.00;97873.63;5050396;28;19916;-67
2021/05/15 10:30:49;;;;;;;;;;;;;;;14.43;100.00;97881.63;5063879;28;19920;-67
2021/05/15 10:33:15;;;;;;;;;;;;;;;14.79;100.00;97875.81;5066065;28;19926;-68
2021/05/15 10:35:43;;;;;;;;;;;;;;;15.17;100.00;97866.38;5062716;28;19928;-67
2021/05/15 10:38:16;;;;;;;;;;;;;;;15.44;100.00;97854.06;5065361;28;19912;-67
2021/05/15 10:40:48;;;;;;;;;;;;;;;17.11;97.43;97846.19;5080726;28;20143;-68
2021/05/15 10:43:13;;;;;;;;;;;;;;;15.84;100.00;97853.03;5066008;28;19920;-68
2021/05/15 10:45:42;;;;;;;;;;;;;;;17.00;96.27;97840.16;5082550;28;19923;-66
2021/05/15 10:48:11;;;;;;;;;;;;;;;14.99;100.00;97851.13;5063311;28;20398;-66
2021/05/15 10:50:47;;;;;;;;;;;;;;;15.74;100.00;97834.72;5084523;28;19927;-67
2021/05/15 10:53:17;;;;;;;;;;;;;;;15.67;100.00;97834.28;5081565;28;19931;-67
2021/05/15 10:55:42;;;;;;;;;;;;;;;16.90;94.54;97829.59;5083048;28;19920;-67
2021/05/15 10:58:12;;;;;;;;;;;;;;;16.40;100.00;97835.09;5064095;28;19923;-67
2021/05/15 11:00:37;;;;;;;;;;;;;;;16.83;94.24;97826.69;5083372;28;19977;-67
2021/05/15 11:03:03;;;;;;;;;;;;;;;17.09;86.98;97823.84;5084408;28;19916;-67
2021/05/15 11:05:30;;;;;;;;;;;;;;;16.50;83.93;97832.63;5083956;28;19920;-67
2021/05/15 11:07:56;;;;;;;;;;;;;;;16.52;87.40;97834.16;5066300;28;20002;-67
2021/05/15 11:10:21;;;;;;;;;;;;;;;17.27;85.62;97822.41;5084553;28;20019;-67
2021/05/15 11:12:47;;;;;;;;;;;;;;;17.59;85.00;97820.81;5064172;28;20364;-67
2021/05/15 11:15:14;;;;;;;;;;;;;;;17.78;80.51;97818.38;5084826;28;19916;-67
2021/05/15 11:17:41;;;;;;;;;;;;;;;18.54;75.03;97818.28;5084103;28;19912;-67
2021/05/15 11:20:17;;;;;;;;;;;;;;;18.66;69.72;97813.84;5066656;28;20428;-67
2021/05/15 11:22:47;;;;;;;;;;;;;;;18.62;66.92;97810.66;5085554;28;20151;-67
2021/05/15 11:25:12;;;;;;;;;;;;;;;19.11;77.18;97801.31;5082996;28;19954;-67
2021/05/15 11:27:43;;;;;;;;;;;;;;;19.54;67.39;97800.16;5084293;28;19955;-67
2021/05/15 11:30:09;;;;;;;;;;;;;;;19.28;67.18;97801.63;5064623;28;19926;-67
2021/05/15 11:32:35;;;;;;;;;;;;;;;18.42;68.01;97798.47;5065623;28;19928;-67
2021/05/15 11:35:01;;;;;;;;;;;;;;;19.21;67.90;97791.72;5064610;28;19920;-67
2021/05/15 11:37:28;;;;;;;;;;;;;;;18.75;70.01;97793.03;5084120;28;19919;-67
2021/05/15 11:39:53;;;;;;;;;;;;;;;18.89;72.03;97780.63;5083785;28;19960;-67
2021/05/15 11:42:19;;;;;;;;;;;;;;;18.46;67.09;97784.22;5064368;28;19997;-67
2021/05/15 11:44:46;;;;;;;;;;;;;;;18.01;68.13;97782.69;5062371;28;19956;-67
2021/05/15 11:47:11;;;;;;;;;;;;;;;17.83;67.73;97781.59;5063444;28;19962;-67
2021/05/15 11:49:37;;;;;;;;;;;;;;;16.90;69.44;97801.00;5080390;28;20326;-66
2021/05/15 11:52:11;;;;;;;;;;;;;;;14.31;89.92;97812.53;5064112;28;20527;-66
2021/05/15 11:54:38;;;;;;;;;;;;;;;12.48;100.00;97827.28;5083020;28;19916;-66
2021/05/15 11:57:04;;;;;;;;;;;;;;;12.19;100.00;97836.72;5080641;28;20342;-66
2021/05/15 11:59:30;;;;;;;;;;;;;;;12.44;100.00;97832.72;5065084;28;19916;-64
2021/05/15 12:01:55;;;;;;;;;;;;;;;13.38;100.00;97825.38;5062066;28;19923;-66
2021/05/15 12:06:55;;;;;;;;;;;;;;;13.65;100.00;97822.81;5062369;28;19977;-66
2021/05/15 12:09:23;;;;;;;;;;;;;;;13.62;100.00;97806.66;5078486;28;20039;-66
2021/05/15 12:11:56;;;;;;;;;;;;;;;14.96;100.00;97807.28;5062583;28;19961;-66
2021/05/15 12:14:21;;;;;;;;;;;;;;;15.28;100.00;97804.22;5079616;28;19920;-66
2021/05/15 12:16:46;;;;;;;;;;;;;;;14.02;100.00;97810.91;5048543;28;19919;-66
2021/05/15 12:19:19;;;;;;;;;;;;;;;12.88;100.00;97799.06;5079386;28;19916;-66
2021/05/15 12:21:58;;;;;;;;;;;;;;;13.21;100.00;97797.94;5080243;28;19920;-66
2021/05/15 12:24:23;;;;;;;;;;;;;;;14.60;100.00;97801.09;5080243;28;19920;-66
2021/05/15 12:26:49;;;;;;;;;;;;;;;14.03;100.00;97798.81;5082975;28;20018;-66
2021/05/15 12:29:14;;;;;;;;;;;;;;;13.21;100.00;97803.13;5063740;28;19913;-66
2021/05/15 12:31:41;;;;;;;;;;;;;;;14.32;100.00;97816.78;5081913;28;19920;-66
2021/05/15 12:34:07;;;;;;;;;;;;;;;14.17;100.00;97824.63;5081249;28;19916;-66
2021/05/15 12:36:33;;;;;;;;;;;;;;;13.65;100.00;97817.63;5065302;28;20033;-66
2021/05/15 12:38:58;;;;;;;;;;;;;;;14.42;100.00;97812.66;5065100;28;19919;-66